Time;durP1;ratioP1;P1;durP2;ratioP2;P2;SDS_P1;SDS_P2;PMS_P1;PMS_P2;Temp;Humidity;BMP_temperature;BMP_pressure;BME280_temperature;BME280_humidity;BME280_pressure;Samples;Min_cycle;Max_cycle;Signal;HPM_P1;HPM_P2
2023/12/05 00:00:38;;;;;;;15.75;8.60;;;2.20;99.90;;;;;;5038227;28;20322;-71
2023/12/05 00:03:07;;;;;;;20.10;8.18;;;2.30;99.90;;;;;;5048239;28;20239;-75
2023/12/05 00:05:35;;;;;;;17.27;8.53;;;2.20;99.90;;;;;;5045060;28;20202;-74
2023/12/05 00:08:03;;;;;;;16.53;8.50;;;2.20;99.90;;;;;;5047323;28;20534;-71
2023/12/05 00:10:31;;;;;;;16.17;8.40;;;2.20;99.90;;;;;;5052115;28;20537;-73
2023/12/05 00:13:01;;;;;;;18.13;8.43;;;2.40;99.90;;;;;;5046938;28;20235;-71
2023/12/05 00:15:29;;;;;;;17.20;8.80;;;2.40;99.90;;;;;;5045467;28;20221;-72
2023/12/05 00:17:57;;;;;;;19.80;10.10;;;2.40;99.90;;;;;;5046256;28;20955;-72
2023/12/05 00:20:24;;;;;;;17.27;9.35;;;2.50;99.90;;;;;;5039539;28;20474;-73
2023/12/05 00:22:52;;;;;;;21.38;9.23;;;2.50;99.90;;;;;;5045852;28;20284;-72
2023/12/05 00:25:20;;;;;;;19.53;10.13;;;2.50;99.90;;;;;;5044820;28;20231;-72
2023/12/05 00:27:48;;;;;;;16.60;9.17;;;2.40;99.90;;;;;;5045645;28;20501;-73
2023/12/05 00:30:19;;;;;;;21.73;9.33;;;2.40;99.90;;;;;;5039652;28;20447;-72
2023/12/05 00:32:47;;;;;;;17.40;10.77;;;2.30;99.90;;;;;;5045421;28;20497;-73
2023/12/05 00:35:16;;;;;;;19.77;9.57;;;2.20;99.90;;;;;;5044846;28;20212;-72
2023/12/05 00:37:44;;;;;;;17.70;8.55;;;2.20;99.90;;;;;;5044747;28;20444;-73
2023/12/05 00:40:12;;;;;;;16.70;8.73;;;2.30;99.90;;;;;;5035650;28;20219;-75
2023/12/05 00:42:40;;;;;;;18.30;9.40;;;2.20;99.90;;;;;;5043964;28;20510;-75
2023/12/05 00:45:10;;;;;;;19.33;10.13;;;2.10;99.90;;;;;;5044794;28;20217;-75
2023/12/05 00:47:41;;;;;;;16.52;8.15;;;2.00;99.90;;;;;;5044103;28;20700;-74
2023/12/05 00:50:10;;;;;;;19.70;9.23;;;2.10;99.90;;;;;;5040816;28;20206;-74
2023/12/05 00:52:38;;;;;;;17.58;8.98;;;2.10;99.90;;;;;;5046404;28;20313;-72
2023/12/05 00:55:06;;;;;;;18.43;8.97;;;2.20;99.90;;;;;;5044620;28;20608;-73
2023/12/05 00:57:34;;;;;;;15.75;8.77;;;2.10;99.90;;;;;;5039641;28;21221;-72
2023/12/05 01:00:04;;;;;;;18.02;9.52;;;2.10;99.90;;;;;;5039922;28;20200;-73
2023/12/05 01:02:32;;;;;;;16.57;9.60;;;2.00;99.90;;;;;;5044853;28;20228;-74
2023/12/05 01:05:02;;;;;;;15.27;8.60;;;2.00;99.90;;;;;;5043903;28;20529;-72
2023/12/05 01:07:30;;;;;;;15.00;7.80;;;2.00;99.90;;;;;;5045290;28;20447;-74
2023/12/05 01:09:59;;;;;;;13.80;6.82;;;1.90;99.90;;;;;;5043847;28;20484;-72
2023/12/05 01:12:27;;;;;;;14.73;7.87;;;1.90;99.90;;;;;;5044667;28;20255;-76
2023/12/05 01:14:56;;;;;;;14.07;8.07;;;2.00;99.90;;;;;;5044400;28;20455;-73
2023/12/05 01:17:24;;;;;;;14.53;6.50;;;1.90;99.90;;;;;;5044717;28;20487;-73
2023/12/05 01:19:52;;;;;;;15.63;7.43;;;1.90;99.90;;;;;;5040373;28;20449;-76
2023/12/05 01:22:21;;;;;;;14.53;6.77;;;1.90;99.90;;;;;;5044657;28;20478;-73
2023/12/05 01:24:54;;;;;;;14.27;6.40;;;1.90;99.90;;;;;;5043413;28;20893;-75
2023/12/05 01:27:22;;;;;;;13.00;4.83;;;1.80;99.90;;;;;;5044290;28;20569;-70
2023/12/05 01:29:50;;;;;;;13.00;5.33;;;1.90;99.90;;;;;;5040599;28;20490;-71
2023/12/05 01:32:18;;;;;;;10.03;4.37;;;2.10;99.90;;;;;;5044577;28;20537;-70
2023/12/05 01:34:46;;;;;;;11.27;4.90;;;2.20;99.90;;;;;;5043888;28;20450;-69
2023/12/05 01:37:14;;;;;;;12.43;5.20;;;2.30;99.90;;;;;;5043690;28;20480;-71
2023/12/05 01:39:44;;;;;;;11.80;4.57;;;2.30;99.90;;;;;;5046872;28;20458;-70
2023/12/05 01:42:11;;;;;;;12.17;4.97;;;2.40;99.90;;;;;;5044580;28;20460;-74
2023/12/05 01:44:39;;;;;;;11.60;4.13;;;2.40;99.90;;;;;;5043933;28;20444;-74
2023/12/05 01:47:07;;;;;;;12.27;4.23;;;2.50;99.90;;;;;;5044156;28;20448;-70
2023/12/05 01:49:36;;;;;;;11.43;4.23;;;2.60;99.90;;;;;;5045587;28;21154;-71
2023/12/05 01:52:05;;;;;;;9.50;3.53;;;2.70;99.90;;;;;;5045234;28;20830;-75
2023/12/05 01:54:33;;;;;;;13.80;4.60;;;2.70;99.90;;;;;;5042699;28;20776;-69
2023/12/05 01:57:03;;;;;;;10.90;4.30;;;2.90;99.90;;;;;;5045726;28;20490;-70
2023/12/05 01:59:32;;;;;;;11.10;3.57;;;2.90;99.90;;;;;;5037797;28;20460;-71
2023/12/05 02:02:01;;;;;;;9.07;3.53;;;3.10;99.90;;;;;;5041960;28;20500;-72
2023/12/05 02:04:31;;;;;;;8.87;3.40;;;3.10;99.90;;;;;;5043887;28;20498;-75
2023/12/05 02:07:01;;;;;;;10.53;3.90;;;3.20;99.90;;;;;;5044614;28;21037;-71
2023/12/05 02:09:30;;;;;;;9.70;3.10;;;3.20;99.90;;;;;;5044469;28;20539;-70
2023/12/05 02:11:58;;;;;;;9.10;3.27;;;3.20;99.90;;;;;;5046411;28;20472;-70
2023/12/05 02:14:27;;;;;;;9.20;3.63;;;3.20;99.90;;;;;;5043669;28;20440;-72
2023/12/05 02:17:07;;;;;;;8.30;3.00;;;3.20;99.90;;;;;;5043643;28;20475;-70
2023/12/05 02:19:53;;;;;;;9.27;3.50;;;3.00;99.90;;;;;;5044773;28;20530;-73
2023/12/05 02:22:49;;;;;;;8.77;3.50;;;3.00;99.90;;;;;;5043975;28;20898;-71
2023/12/05 02:25:30;;;;;;;8.20;2.67;;;3.00;99.90;;;;;;5043293;28;20478;-71
2023/12/05 02:28:01;;;;;;;10.10;2.83;;;2.90;99.90;;;;;;5042341;28;20431;-69
2023/12/05 02:30:29;;;;;;;9.10;2.97;;;2.80;99.90;;;;;;5040927;28;20482;-73
2023/12/05 02:32:57;;;;;;;11.00;3.90;;;2.70;99.90;;;;;;5043372;28;20502;-74
2023/12/05 02:35:25;;;;;;;9.03;3.17;;;2.70;99.90;;;;;;5043025;28;20444;-74
2023/12/05 02:38:02;;;;;;;10.20;3.70;;;2.70;99.90;;;;;;5043615;28;20487;-74
2023/12/05 02:40:35;;;;;;;9.30;3.47;;;2.70;99.90;;;;;;5046737;28;20921;-70
2023/12/05 02:43:12;;;;;;;10.37;3.07;;;2.70;99.90;;;;;;5047594;28;20503;-71
2023/12/05 02:45:44;;;;;;;8.97;3.40;;;2.60;99.90;;;;;;5046908;28;20552;-72
2023/12/05 02:48:13;;;;;;;8.03;2.93;;;2.50;99.90;;;;;;5046514;28;20437;-74
2023/12/05 02:50:41;;;;;;;9.07;3.10;;;2.50;99.90;;;;;;5045510;28;20479;-73
2023/12/05 02:53:09;;;;;;;8.57;2.70;;;2.50;99.90;;;;;;5047000;28;20463;-74
2023/12/05 02:55:39;;;;;;;9.30;3.40;;;2.50;99.90;;;;;;5046334;28;20443;-74
2023/12/05 02:58:08;;;;;;;9.23;3.53;;;2.40;99.90;;;;;;5046675;28;21003;-71
2023/12/05 03:00:36;;;;;;;12.10;3.40;;;2.40;99.90;;;;;;5045867;28;20516;-71
2023/12/05 03:03:04;;;;;;;9.20;3.47;;;2.50;99.90;;;;;;5047492;28;20475;-74
2023/12/05 03:05:32;;;;;;;9.93;3.27;;;2.40;99.90;;;;;;5047515;28;20816;-71
2023/12/05 03:08:01;;;;;;;9.63;3.33;;;2.50;99.90;;;;;;5047682;28;21038;-70
2023/12/05 03:10:28;;;;;;;9.17;3.17;;;2.60;99.90;;;;;;5043635;28;20448;-71
2023/12/05 03:12:56;;;;;;;9.30;2.90;;;2.60;99.90;;;;;;5047962;28;20537;-71
2023/12/05 03:15:26;;;;;;;9.60;3.30;;;2.60;99.90;;;;;;5047454;28;20443;-73
2023/12/05 03:17:54;;;;;;;12.80;3.57;;;2.60;99.90;;;;;;5046828;28;20487;-74
2023/12/05 03:20:22;;;;;;;10.47;3.40;;;2.70;99.90;;;;;;5046953;28;20833;-72
2023/12/05 03:22:50;;;;;;;9.60;3.20;;;2.80;99.90;;;;;;5047130;28;20975;-72
2023/12/05 03:25:18;;;;;;;9.70;3.30;;;2.80;99.90;;;;;;5046253;28;20542;-71
2023/12/05 03:27:46;;;;;;;9.97;3.27;;;2.90;99.90;;;;;;5046828;28;20992;-73
2023/12/05 03:30:15;;;;;;;8.80;2.97;;;2.90;99.90;;;;;;5046190;28;20440;-72
2023/12/05 03:32:44;;;;;;;9.30;3.33;;;2.80;99.90;;;;;;5046793;28;20467;-73
2023/12/05 03:35:12;;;;;;;9.93;3.50;;;2.80;99.90;;;;;;5045739;28;20452;-74
2023/12/05 03:37:40;;;;;;;9.23;3.43;;;2.70;99.90;;;;;;5046379;28;20500;-71
2023/12/05 03:40:09;;;;;;;9.00;3.33;;;2.70;99.90;;;;;;5038178;28;20452;-71
2023/12/05 03:42:37;;;;;;;8.27;2.90;;;2.60;99.90;;;;;;5046357;28;20856;-72
2023/12/05 03:45:06;;;;;;;9.37;3.17;;;2.70;99.90;;;;;;5045643;28;20448;-74
2023/12/05 03:47:34;;;;;;;9.37;3.27;;;2.80;99.90;;;;;;5012019;28;20953;-70
2023/12/05 03:50:04;;;;;;;8.70;3.03;;;2.80;99.90;;;;;;5038349;28;20474;-70
2023/12/05 03:52:32;;;;;;;9.07;3.47;;;3.00;99.90;;;;;;5047259;28;21042;-73
2023/12/05 03:55:00;;;;;;;9.97;3.73;;;3.10;99.90;;;;;;5046160;28;20501;-71
2023/12/05 03:57:28;;;;;;;8.40;3.20;;;3.00;99.90;;;;;;5046909;28;20479;-71
2023/12/05 03:59:56;;;;;;;9.07;3.27;;;3.00;99.90;;;;;;5039345;28;20538;-72
2023/12/05 04:02:24;;;;;;;9.20;3.50;;;3.00;99.90;;;;;;5047113;28;20563;-70
2023/12/05 04:04:52;;;;;;;8.87;3.30;;;3.00;99.90;;;;;;5046422;28;20513;-73
2023/12/05 04:07:22;;;;;;;9.37;3.30;;;2.90;99.90;;;;;;5039060;28;21107;-70
2023/12/05 04:09:50;;;;;;;9.53;3.10;;;2.90;99.90;;;;;;5054102;28;20456;-73
2023/12/05 04:12:18;;;;;;;9.53;3.23;;;2.90;99.90;;;;;;5046507;28;20554;-72
2023/12/05 04:14:45;;;;;;;9.43;3.20;;;2.90;99.90;;;;;;5046363;28;20459;-71
2023/12/05 04:17:13;;;;;;;11.40;3.73;;;2.90;99.90;;;;;;5046870;28;20487;-70
2023/12/05 04:19:41;;;;;;;10.20;3.43;;;3.00;99.90;;;;;;5053049;28;20459;-71
2023/12/05 04:22:09;;;;;;;10.10;3.80;;;2.90;99.90;;;;;;5045905;28;21096;-73
2023/12/05 04:24:39;;;;;;;10.20;3.50;;;2.80;99.90;;;;;;5044439;28;20471;-73
2023/12/05 04:27:07;;;;;;;10.90;4.10;;;2.80;99.90;;;;;;5045662;28;20452;-75
2023/12/05 04:29:35;;;;;;;8.10;3.03;;;2.90;99.90;;;;;;5038912;28;21005;-72
2023/12/05 04:32:02;;;;;;;9.50;3.50;;;2.80;99.90;;;;;;5044671;28;20543;-73
2023/12/05 04:34:30;;;;;;;10.90;3.83;;;2.80;99.90;;;;;;5044519;28;20456;-73
2023/12/05 04:36:58;;;;;;;10.80;3.90;;;2.80;99.90;;;;;;5045449;28;20808;-72
2023/12/05 04:39:26;;;;;;;9.63;3.53;;;2.80;99.90;;;;;;5051249;28;20517;-72
2023/12/05 04:41:56;;;;;;;9.87;3.67;;;2.80;99.90;;;;;;5044803;28;20475;-72
2023/12/05 04:44:24;;;;;;;10.40;4.00;;;2.70;99.90;;;;;;5044697;28;20537;-72
2023/12/05 04:46:52;;;;;;;14.13;4.37;;;2.70;99.90;;;;;;5044932;28;20455;-70
2023/12/05 04:49:21;;;;;;;12.10;5.10;;;2.70;99.90;;;;;;5050997;28;20440;-72
2023/12/05 04:51:49;;;;;;;9.47;3.87;;;2.70;99.90;;;;;;5047031;28;20470;-71
2023/12/05 04:54:17;;;;;;;9.20;3.27;;;2.70;99.90;;;;;;5046484;28;21036;-73
2023/12/05 04:56:45;;;;;;;10.87;3.73;;;2.70;99.90;;;;;;5046357;28;20466;-71
2023/12/05 04:59:14;;;;;;;10.20;3.80;;;2.60;99.90;;;;;;5051504;28;20566;-71
2023/12/05 05:01:42;;;;;;;12.33;3.87;;;2.60;99.90;;;;;;5044774;28;20533;-74
2023/12/05 05:04:10;;;;;;;9.77;3.83;;;2.60;99.90;;;;;;5044297;28;20473;-75
2023/12/05 05:06:38;;;;;;;11.87;3.70;;;2.60;99.90;;;;;;5048948;28;20222;-71
2023/12/05 05:09:07;;;;;;;10.50;3.80;;;2.70;99.90;;;;;;5047504;28;21086;-72
2023/12/05 05:11:35;;;;;;;12.67;4.97;;;2.70;99.90;;;;;;5043915;28;20463;-71
2023/12/05 05:14:03;;;;;;;10.07;3.80;;;2.70;99.90;;;;;;5034925;28;20448;-73
2023/12/05 05:16:33;;;;;;;9.73;3.73;;;2.60;99.90;;;;;;5045126;28;20451;-71
2023/12/05 05:19:01;;;;;;;11.87;3.90;;;2.70;99.90;;;;;;5049120;28;20571;-70
2023/12/05 05:21:29;;;;;;;9.70;3.40;;;2.70;99.90;;;;;;5044471;28;20455;-70
2023/12/05 05:23:57;;;;;;;9.27;3.20;;;2.70;99.90;;;;;;5044273;28;20972;-70
2023/12/05 05:26:25;;;;;;;9.80;3.60;;;2.60;99.90;;;;;;5043264;28;20473;-69
2023/12/05 05:28:53;;;;;;;8.40;2.80;;;2.60;99.90;;;;;;5044301;28;20436;-70
2023/12/05 05:31:21;;;;;;;9.37;3.07;;;2.60;99.90;;;;;;5044198;28;20468;-70
2023/12/05 05:33:51;;;;;;;10.83;3.50;;;2.60;99.90;;;;;;5043239;28;20469;-72
2023/12/05 05:36:19;;;;;;;9.93;3.07;;;2.60;99.90;;;;;;5045070;28;20872;-71
2023/12/05 05:38:47;;;;;;;9.07;3.23;;;2.50;99.90;;;;;;5045444;28;20940;-73
2023/12/05 05:41:15;;;;;;;9.10;3.00;;;2.60;99.90;;;;;;5039370;28;20440;-73
2023/12/05 05:43:42;;;;;;;8.27;3.03;;;2.70;99.90;;;;;;5045813;28;21104;-72
2023/12/05 05:46:10;;;;;;;9.37;3.20;;;2.80;99.90;;;;;;5044576;28;20544;-73
2023/12/05 05:48:38;;;;;;;10.20;3.27;;;2.80;99.90;;;;;;5045888;28;21073;-70
2023/12/05 05:51:09;;;;;;;9.20;2.40;;;2.80;99.90;;;;;;5037649;28;20454;-70
2023/12/05 05:53:36;;;;;;;8.27;2.23;;;2.80;99.90;;;;;;5045814;28;20550;-72
2023/12/05 05:56:06;;;;;;;8.47;2.67;;;2.70;99.90;;;;;;5044697;28;20535;-74
2023/12/05 05:58:34;;;;;;;9.93;2.67;;;2.70;99.90;;;;;;5045084;28;21207;-71
2023/12/05 06:01:02;;;;;;;7.77;2.23;;;2.80;99.90;;;;;;5037689;28;20472;-71
2023/12/05 06:03:31;;;;;;;9.60;2.60;;;2.80;99.90;;;;;;5045103;28;20839;-74
2023/12/05 06:05:59;;;;;;;9.77;2.87;;;2.90;99.90;;;;;;5043269;28;20820;-71
2023/12/05 06:08:29;;;;;;;8.67;3.63;;;3.00;99.90;;;;;;5043543;28;20518;-71
2023/12/05 06:10:57;;;;;;;8.43;2.40;;;3.00;99.90;;;;;;5052612;28;20505;-71
2023/12/05 06:13:25;;;;;;;8.57;2.30;;;3.10;99.90;;;;;;5044009;28;21017;-68
2023/12/05 06:15:53;;;;;;;9.33;2.60;;;3.30;99.90;;;;;;5047504;28;21024;-69
2023/12/05 06:18:21;;;;;;;8.50;2.90;;;3.30;99.90;;;;;;5035760;28;20834;-71
2023/12/05 06:20:51;;;;;;;10.87;3.33;;;3.30;99.90;;;;;;5041132;28;20503;-72
2023/12/05 06:23:19;;;;;;;8.80;2.63;;;3.30;99.90;;;;;;5047128;28;21079;-73
2023/12/05 06:25:49;;;;;;;8.63;2.73;;;3.40;99.90;;;;;;5051733;28;20997;-70
2023/12/05 06:28:16;;;;;;;9.30;3.43;;;3.40;99.90;;;;;;5040834;28;20452;-71
2023/12/05 06:30:44;;;;;;;8.17;2.27;;;3.50;99.90;;;;;;5046997;28;20449;-72
2023/12/05 06:33:12;;;;;;;8.13;2.20;;;3.60;99.90;;;;;;5047724;28;20467;-70
2023/12/05 06:35:41;;;;;;;7.23;2.07;;;3.60;99.90;;;;;;5047467;28;20496;-69
2023/12/05 06:38:09;;;;;;;9.20;2.80;;;3.60;99.90;;;;;;5043663;28;20467;-70
2023/12/05 06:40:37;;;;;;;11.63;3.20;;;3.50;99.90;;;;;;5047903;28;20487;-71
2023/12/05 06:43:06;;;;;;;8.77;2.40;;;3.50;99.90;;;;;;5048459;28;20562;-70
2023/12/05 06:45:35;;;;;;;8.80;2.37;;;3.60;99.90;;;;;;5042742;28;20656;-73
2023/12/05 06:48:03;;;;;;;8.93;2.40;;;3.60;99.90;;;;;;5048321;28;20450;-70
2023/12/05 06:50:32;;;;;;;8.23;2.23;;;3.60;99.90;;;;;;5048248;28;20882;-72
2023/12/05 06:53:00;;;;;;;7.80;2.13;;;3.60;99.90;;;;;;5048251;28;21024;-73
2023/12/05 06:55:28;;;;;;;8.07;2.70;;;3.70;99.90;;;;;;5047603;28;20513;-73
2023/12/05 06:57:56;;;;;;;9.30;2.57;;;3.60;99.90;;;;;;5048358;28;20555;-74
2023/12/05 07:00:25;;;;;;;8.30;2.73;;;3.60;99.90;;;;;;5047790;28;20483;-73
2023/12/05 07:02:54;;;;;;;8.60;2.50;;;3.60;99.90;;;;;;5048109;28;21266;-70
2023/12/05 07:05:22;;;;;;;7.93;2.27;;;3.60;99.90;;;;;;5047879;28;20831;-71
2023/12/05 07:07:50;;;;;;;7.70;2.20;;;3.60;99.90;;;;;;5048913;28;20472;-72
2023/12/05 07:10:18;;;;;;;9.80;2.40;;;3.60;99.90;;;;;;5039262;28;20809;-73
2023/12/05 07:12:46;;;;;;;10.10;2.80;;;3.60;99.90;;;;;;5045753;28;20463;-71
2023/12/05 07:15:14;;;;;;;8.33;2.50;;;3.50;99.90;;;;;;5041321;28;20482;-69
2023/12/05 07:17:43;;;;;;;7.90;2.50;;;3.40;99.90;;;;;;5042223;28;20447;-70
2023/12/05 07:20:12;;;;;;;8.73;2.60;;;3.40;99.90;;;;;;5034731;28;20487;-72
2023/12/05 07:22:40;;;;;;;10.20;2.70;;;3.40;99.90;;;;;;5043637;28;20525;-72
2023/12/05 07:25:08;;;;;;;10.13;3.00;;;3.40;99.90;;;;;;5040421;28;20543;-72
2023/12/05 07:27:36;;;;;;;8.37;2.50;;;3.40;99.90;;;;;;5041545;28;20531;-70
2023/12/05 07:30:05;;;;;;;9.30;2.20;;;3.40;99.90;;;;;;5040681;28;20436;-71
2023/12/05 07:32:33;;;;;;;10.20;2.40;;;3.40;99.90;;;;;;5047439;28;20464;-68
2023/12/05 07:35:02;;;;;;;8.53;3.00;;;3.40;99.90;;;;;;5046054;28;20448;-73
2023/12/05 07:37:30;;;;;;;8.30;2.10;;;3.40;99.90;;;;;;5041305;28;20826;-71
2023/12/05 07:39:58;;;;;;;9.53;2.77;;;3.40;99.90;;;;;;5040414;28;20476;-69
2023/12/05 07:42:26;;;;;;;8.30;2.10;;;3.40;99.90;;;;;;5038319;28;20544;-72
2023/12/05 07:44:55;;;;;;;8.23;2.50;;;3.40;99.90;;;;;;5042361;28;20479;-72
2023/12/05 07:47:23;;;;;;;8.33;2.67;;;3.40;99.90;;;;;;5044880;28;20440;-68
2023/12/05 07:49:51;;;;;;;9.80;3.30;;;3.30;99.90;;;;;;5045366;28;20447;-72
2023/12/05 07:52:21;;;;;;;7.20;2.50;;;3.40;99.90;;;;;;5044863;28;20460;-69
2023/12/05 07:54:49;;;;;;;9.13;3.10;;;3.40;99.90;;;;;;5045725;28;21088;-71
2023/12/05 07:57:22;;;;;;;10.93;3.00;;;3.50;99.90;;;;;;5046203;28;20451;-71
2023/12/05 07:59:50;;;;;;;14.23;3.20;;;3.60;99.90;;;;;;5046035;28;20564;-71
2023/12/05 08:02:18;;;;;;;10.50;3.50;;;3.70;99.90;;;;;;5045497;28;20464;-69
2023/12/05 08:04:46;;;;;;;9.63;3.03;;;3.90;99.90;;;;;;5045588;28;20462;-73
2023/12/05 08:07:14;;;;;;;10.20;2.63;;;4.00;99.90;;;;;;5047425;28;20476;-69
2023/12/05 08:09:43;;;;;;;10.93;2.30;;;4.10;99.90;;;;;;5047199;28;20475;-71
2023/12/05 08:12:11;;;;;;;8.67;2.47;;;4.20;99.90;;;;;;5045104;28;20471;-69
2023/12/05 08:14:40;;;;;;;9.17;2.27;;;4.30;99.90;;;;;;5044673;28;21147;-68
2023/12/05 08:17:08;;;;;;;8.80;2.50;;;4.40;99.90;;;;;;5046266;28;20459;-71
2023/12/05 08:19:36;;;;;;;9.27;2.83;;;4.40;99.90;;;;;;5047354;28;20539;-73
2023/12/05 08:22:04;;;;;;;7.93;2.13;;;4.50;99.90;;;;;;5046596;28;20464;-71
2023/12/05 08:24:32;;;;;;;9.53;2.67;;;4.60;99.90;;;;;;5045946;28;20477;-69
2023/12/05 08:27:02;;;;;;;9.30;2.07;;;4.70;99.90;;;;;;5046852;28;21058;-70
2023/12/05 08:29:30;;;;;;;8.03;1.77;;;4.90;99.90;;;;;;5047124;28;20566;-71
2023/12/05 08:31:58;;;;;;;9.47;1.90;;;5.10;99.90;;;;;;5046729;28;20495;-70
2023/12/05 08:34:27;;;;;;;7.93;1.73;;;5.30;99.90;;;;;;5046271;28;20986;-72
2023/12/05 08:36:55;;;;;;;9.80;1.87;;;5.70;99.90;;;;;;5046498;28;20454;-68
2023/12/05 08:39:23;;;;;;;7.93;1.97;;;6.20;99.90;;;;;;5046128;28;20530;-68
2023/12/05 08:41:52;;;;;;;7.40;1.93;;;6.50;99.90;;;;;;5045538;28;20475;-70
2023/12/05 08:44:21;;;;;;;7.40;1.90;;;6.80;99.90;;;;;;5044953;28;20856;-72
2023/12/05 08:46:49;;;;;;;8.87;1.80;;;7.20;99.90;;;;;;5045677;28;20499;-71
2023/12/05 08:49:18;;;;;;;9.67;2.33;;;7.40;99.90;;;;;;5045280;28;20538;-69
2023/12/05 08:51:46;;;;;;;9.30;2.00;;;7.40;99.90;;;;;;5044886;28;20461;-71
2023/12/05 08:54:14;;;;;;;8.70;1.67;;;7.30;99.90;;;;;;5045055;28;20486;-70
2023/12/05 08:56:42;;;;;;;7.90;2.07;;;6.90;99.90;;;;;;5050266;28;20447;-68
2023/12/05 08:59:10;;;;;;;10.27;1.83;;;6.70;99.90;;;;;;5046356;28;20937;-71
2023/12/05 09:01:39;;;;;;;9.53;2.07;;;6.70;99.90;;;;;;5044871;28;20666;-71
2023/12/05 09:04:09;;;;;;;9.13;1.80;;;6.60;99.90;;;;;;5052644;28;20456;-71
2023/12/05 09:06:37;;;;;;;8.63;2.43;;;6.60;99.90;;;;;;5044464;28;20455;-72
2023/12/05 09:09:05;;;;;;;8.90;2.30;;;6.60;99.90;;;;;;5046225;28;20451;-72
2023/12/05 09:11:33;;;;;;;9.83;2.00;;;6.70;99.90;;;;;;5045815;28;20467;-69
2023/12/05 09:14:01;;;;;;;7.90;2.30;;;6.60;99.90;;;;;;5046203;28;20447;-69
2023/12/05 09:16:29;;;;;;;9.60;1.90;;;6.60;99.90;;;;;;5046199;28;20459;-70
2023/12/05 09:18:59;;;;;;;7.33;1.53;;;6.60;99.90;;;;;;5046044;28;20448;-69
2023/12/05 09:21:27;;;;;;;9.70;1.93;;;6.70;99.90;;;;;;5045561;28;20492;-73
2023/12/05 09:23:55;;;;;;;6.77;1.70;;;6.60;99.90;;;;;;5045867;28;20924;-70
2023/12/05 09:26:23;;;;;;;7.77;1.33;;;6.60;99.90;;;;;;5045553;28;20519;-72
2023/12/05 09:28:53;;;;;;;7.00;1.30;;;6.50;99.90;;;;;;5046058;28;20451;-71
2023/12/05 09:31:21;;;;;;;8.80;1.50;;;6.50;99.90;;;;;;5045244;28;20468;-72
2023/12/05 09:33:49;;;;;;;8.07;1.20;;;6.60;99.90;;;;;;5044755;28;21107;-72
2023/12/05 09:36:19;;;;;;;7.27;1.50;;;6.60;99.90;;;;;;5044129;28;20521;-74
2023/12/05 09:38:46;;;;;;;7.37;1.40;;;6.60;99.90;;;;;;5044665;28;20458;-70
2023/12/05 09:41:17;;;;;;;7.40;1.00;;;6.70;99.90;;;;;;5044542;28;20486;-70
2023/12/05 09:43:46;;;;;;;7.40;0.90;;;6.70;99.90;;;;;;5044569;28;20454;-70
2023/12/05 09:46:16;;;;;;;6.77;1.17;;;6.80;99.90;;;;;;5044718;28;20869;-71
2023/12/05 09:48:46;;;;;;;7.33;1.20;;;6.80;99.90;;;;;;5044786;28;20443;-71
2023/12/05 09:51:16;;;;;;;8.33;1.50;;;6.70;99.90;;;;;;5044213;28;20457;-69
2023/12/05 09:53:46;;;;;;;7.50;1.43;;;6.80;99.90;;;;;;5044754;28;20953;-71
2023/12/05 09:56:14;;;;;;;7.80;1.30;;;6.70;99.90;;;;;;5044126;28;20446;-72
2023/12/05 09:58:44;;;;;;;6.47;1.07;;;6.80;99.90;;;;;;5044545;28;20459;-68
2023/12/05 10:01:15;;;;;;;8.43;1.30;;;6.90;99.90;;;;;;5044043;28;20487;-75
2023/12/05 10:03:45;;;;;;;8.43;1.50;;;7.00;99.90;;;;;;5044015;28;20961;-68
2023/12/05 10:06:16;;;;;;;6.70;1.63;;;7.10;99.90;;;;;;5045414;28;20560;-68
2023/12/05 10:08:51;;;;;;;6.30;0.90;;;7.10;99.90;;;;;;5045887;28;20450;-71
2023/12/05 10:11:21;;;;;;;6.10;0.83;;;7.40;99.90;;;;;;5045245;28;20473;-70
2023/12/05 10:13:50;;;;;;;6.90;1.10;;;7.90;99.90;;;;;;5045818;28;20451;-69
2023/12/05 10:16:18;;;;;;;8.23;1.27;;;8.40;99.90;;;;;;5045348;28;21053;-72
2023/12/05 10:18:47;;;;;;;8.00;1.10;;;9.00;99.90;;;;;;5045778;28;20454;-69
2023/12/05 10:21:16;;;;;;;7.70;1.20;;;9.70;99.90;;;;;;5046469;28;20519;-69
2023/12/05 10:23:44;;;;;;;6.83;1.20;;;10.10;99.90;;;;;;5051852;28;20443;-72
2023/12/05 10:26:13;;;;;;;7.53;1.30;;;10.50;99.90;;;;;;5044891;28;20995;-73
2023/12/05 10:28:50;;;;;;;6.10;0.90;;;10.90;99.90;;;;;;5045313;28;20508;-69
2023/12/05 10:31:19;;;;;;;6.40;1.23;;;10.80;99.90;;;;;;5045163;28;20815;-70
2023/12/05 10:33:48;;;;;;;8.60;0.90;;;10.80;99.90;;;;;;5045476;28;20676;-75
2023/12/05 10:36:17;;;;;;;6.57;0.97;;;10.60;99.90;;;;;;5045349;28;20514;-69
2023/12/05 10:38:46;;;;;;;7.50;1.17;;;10.10;99.90;;;;;;5045760;28;20459;-70
2023/12/05 10:41:22;;;;;;;6.50;1.07;;;9.60;99.90;;;;;;5044921;28;20965;-69
2023/12/05 10:43:51;;;;;;;6.70;1.33;;;9.60;99.90;;;;;;5045250;28;21000;-71
2023/12/05 10:46:19;;;;;;;6.70;1.00;;;9.50;99.90;;;;;;5044706;28;20454;-70
2023/12/05 10:48:47;;;;;;;6.60;1.20;;;9.60;99.90;;;;;;5045554;28;20455;-71
2023/12/05 10:51:15;;;;;;;6.30;1.00;;;9.40;99.90;;;;;;5045188;28;20541;-71
2023/12/05 10:53:44;;;;;;;7.37;1.23;;;9.20;99.90;;;;;;5045344;28;20433;-68
2023/12/05 10:56:13;;;;;;;6.70;0.90;;;9.00;99.90;;;;;;5044903;28;20445;-70
2023/12/05 10:58:43;;;;;;;8.00;1.10;;;9.00;99.90;;;;;;5044839;28;20824;-73
2023/12/05 11:01:12;;;;;;;6.30;0.90;;;8.90;99.90;;;;;;5047886;28;21086;-70
2023/12/05 11:03:42;;;;;;;7.60;1.30;;;8.80;99.90;;;;;;5048983;28;20567;-70
2023/12/05 11:06:10;;;;;;;6.33;1.30;;;8.60;99.90;;;;;;5048590;28;20468;-71
2023/12/05 11:08:38;;;;;;;5.77;0.63;;;8.50;99.90;;;;;;5048845;28;20445;-69
2023/12/05 11:11:07;;;;;;;7.67;1.50;;;8.40;99.90;;;;;;5048293;28;20465;-72
2023/12/05 11:13:36;;;;;;;6.37;0.90;;;8.30;99.90;;;;;;5048994;28;20455;-69
2023/12/05 11:16:11;;;;;;;6.30;0.97;;;8.30;99.90;;;;;;5048266;28;20451;-70
2023/12/05 11:18:40;;;;;;;7.70;1.20;;;8.30;99.90;;;;;;5048934;28;20439;-69
2023/12/05 11:21:36;;;;;;;5.83;0.70;;;8.30;99.90;;;;;;5048298;28;20440;-70
2023/12/05 11:24:25;;;;;;;7.47;0.97;;;8.20;99.90;;;;;;5048021;28;20447;-73
2023/12/05 11:27:21;;;;;;;6.67;1.10;;;8.20;99.90;;;;;;5048624;28;20440;-68
2023/12/05 11:30:09;;;;;;;7.00;1.30;;;8.20;99.90;;;;;;5048369;28;20442;-70
2023/12/05 11:32:52;;;;;;;7.40;0.90;;;8.10;99.90;;;;;;5048735;28;20489;-73
2023/12/05 11:35:29;;;;;;;5.93;1.00;;;8.10;99.90;;;;;;5048114;28;20454;-74
2023/12/05 11:38:08;;;;;;;6.77;1.67;;;8.10;99.90;;;;;;5048271;28;20437;-70
2023/12/05 11:40:36;;;;;;;6.10;1.00;;;8.00;99.90;;;;;;5048002;28;20433;-74
2023/12/05 11:43:06;;;;;;;6.30;1.40;;;8.10;99.90;;;;;;5048344;28;20500;-70
2023/12/05 11:45:37;;;;;;;7.13;1.10;;;8.00;99.90;;;;;;5047443;28;20541;-74
2023/12/05 11:48:06;;;;;;;6.93;0.83;;;8.00;99.90;;;;;;5048460;28;20971;-72
2023/12/05 11:50:46;;;;;;;6.60;1.00;;;8.10;99.90;;;;;;5047935;28;20447;-72
2023/12/05 11:53:15;;;;;;;7.73;1.17;;;8.10;99.90;;;;;;5048344;28;20490;-69
2023/12/05 11:55:46;;;;;;;6.63;1.20;;;8.10;99.90;;;;;;5047690;28;20437;-72
2023/12/05 11:58:31;;;;;;;6.60;0.90;;;8.10;99.90;;;;;;5047713;28;20931;-69
2023/12/05 12:01:04;;;;;;;6.30;0.70;;;8.20;99.90;;;;;;5049306;28;20472;-70
2023/12/05 12:03:53;;;;;;;5.80;0.73;;;8.10;99.90;;;;;;5049866;28;20488;-72
2023/12/05 12:06:23;;;;;;;9.30;1.17;;;8.20;99.90;;;;;;5047209;28;20480;-73
2023/12/05 12:08:53;;;;;;;6.10;0.97;;;8.20;99.90;;;;;;5047707;28;20447;-71
2023/12/05 12:11:22;;;;;;;8.97;1.37;;;8.40;99.90;;;;;;5045885;28;20497;-72
2023/12/05 12:13:50;;;;;;;8.27;0.80;;;8.40;99.90;;;;;;5047280;28;20557;-72
2023/12/05 12:16:20;;;;;;;6.80;0.90;;;8.50;99.90;;;;;;5046968;28;20501;-73
2023/12/05 12:18:48;;;;;;;7.77;0.90;;;8.40;99.90;;;;;;5046273;28;20828;-71
2023/12/05 12:21:29;;;;;;;6.97;0.90;;;8.40;99.90;;;;;;5045960;28;20874;-73
2023/12/05 12:23:57;;;;;;;6.00;0.90;;;8.50;99.90;;;;;;5046160;28;20451;-74
2023/12/05 12:26:27;;;;;;;6.20;1.10;;;8.50;99.90;;;;;;5046434;28;20460;-74
2023/12/05 12:28:55;;;;;;;6.33;0.97;;;8.60;99.90;;;;;;5046619;28;20472;-71
2023/12/05 12:31:26;;;;;;;5.83;0.80;;;8.60;99.90;;;;;;5045819;28;20460;-71
2023/12/05 12:33:56;;;;;;;6.97;1.00;;;8.40;99.90;;;;;;5046213;28;20913;-72
2023/12/05 12:36:26;;;;;;;6.20;1.00;;;8.50;99.90;;;;;;5045861;28;20452;-71
2023/12/05 12:38:55;;;;;;;6.50;1.00;;;8.70;99.90;;;;;;5046745;28;20536;-74
2023/12/05 12:41:24;;;;;;;6.40;0.90;;;8.90;99.90;;;;;;5045878;28;20547;-70
2023/12/05 12:43:53;;;;;;;7.83;0.83;;;9.10;99.90;;;;;;5046266;28;20484;-72
2023/12/05 12:46:21;;;;;;;7.60;1.00;;;9.30;99.90;;;;;;5045779;28;20501;-74
2023/12/05 12:48:49;;;;;;;6.33;1.07;;;9.30;99.90;;;;;;5046572;28;20449;-71
2023/12/05 12:51:18;;;;;;;5.90;0.80;;;9.40;99.90;;;;;;5045558;28;21009;-73
2023/12/05 12:53:47;;;;;;;7.33;1.27;;;9.40;99.90;;;;;;5046244;28;20437;-70
2023/12/05 12:56:15;;;;;;;6.00;0.80;;;9.40;99.90;;;;;;5043042;28;20502;-72
2023/12/05 12:58:47;;;;;;;5.60;0.60;;;9.40;99.90;;;;;;5045060;28;20454;-70
2023/12/05 13:01:15;;;;;;;7.30;1.00;;;9.60;99.90;;;;;;5044238;28;20460;-71
2023/12/05 13:03:44;;;;;;;6.30;0.93;;;9.60;99.90;;;;;;5044945;28;20487;-71